sensor_id;sensor_type;location;lat;lon;timestamp;temperature;humidity
33067;DHT22;19428;49.024;8.366;2023-03-01T00:02:10;-0.40;97.80
33067;DHT22;19428;49.024;8.366;2023-03-01T00:04:36;-0.30;97.10
33067;DHT22;19428;49.024;8.366;2023-03-01T00:07:02;-0.20;96.60
33067;DHT22;19428;49.024;8.366;2023-03-01T00:09:27;-0.20;96.30
33067;DHT22;19428;49.024;8.366;2023-03-01T00:11:53;-0.20;96.40
33067;DHT22;19428;49.024;8.366;2023-03-01T00:14:19;-0.20;96.50
33067;DHT22;19428;49.024;8.366;2023-03-01T00:16:45;-0.30;96.70
33067;DHT22;19428;49.024;8.366;2023-03-01T00:19:16;-0.30;96.90
33067;DHT22;19428;49.024;8.366;2023-03-01T00:21:43;-0.30;97.20
33067;DHT22;19428;49.024;8.366;2023-03-01T00:24:08;-0.20;96.90
33067;DHT22;19428;49.024;8.366;2023-03-01T00:26:34;-0.50;97.10
33067;DHT22;19428;49.024;8.366;2023-03-01T00:29:00;-0.40;97.70
33067;DHT22;19428;49.024;8.366;2023-03-01T00:31:28;-0.50;97.80
33067;DHT22;19428;49.024;8.366;2023-03-01T00:33:59;-0.50;98.60
33067;DHT22;19428;49.024;8.366;2023-03-01T00:36:27;-0.60;98.30
33067;DHT22;19428;49.024;8.366;2023-03-01T00:38:53;-0.50;98.70
33067;DHT22;19428;49.024;8.366;2023-03-01T00:41:19;-0.50;98.50
33067;DHT22;19428;49.024;8.366;2023-03-01T00:43:45;-0.40;98.60
33067;DHT22;19428;49.024;8.366;2023-03-01T00:46:20;-0.30;98.20
33067;DHT22;19428;49.024;8.366;2023-03-01T00:48:46;-0.30;97.70
33067;DHT22;19428;49.024;8.366;2023-03-01T00:51:15;-0.30;97.60
33067;DHT22;19428;49.024;8.366;2023-03-01T00:53:41;-0.40;98.00
33067;DHT22;19428;49.024;8.366;2023-03-01T00:56:09;-0.40;97.50
33067;DHT22;19428;49.024;8.366;2023-03-01T00:58:34;-0.30;98.10
33067;DHT22;19428;49.024;8.366;2023-03-01T01:01:00;-0.30;98.20
33067;DHT22;19428;49.024;8.366;2023-03-01T01:03:26;-0.40;98.00
33067;DHT22;19428;49.024;8.366;2023-03-01T01:05:53;-0.30;98.40
33067;DHT22;19428;49.024;8.366;2023-03-01T01:08:20;-0.30;98.20
33067;DHT22;19428;49.024;8.366;2023-03-01T01:10:46;-0.10;98.30
33067;DHT22;19428;49.024;8.366;2023-03-01T01:13:13;-0.20;98.20
33067;DHT22;19428;49.024;8.366;2023-03-01T01:15:38;-0.30;98.30
33067;DHT22;19428;49.024;8.366;2023-03-01T01:18:05;-0.40;98.20
33067;DHT22;19428;49.024;8.366;2023-03-01T01:20:31;-0.30;98.70
33067;DHT22;19428;49.024;8.366;2023-03-01T01:22:56;-0.50;98.50
33067;DHT22;19428;49.024;8.366;2023-03-01T01:25:22;-0.40;99.30
33067;DHT22;19428;49.024;8.366;2023-03-01T01:27:50;-0.40;99.30
33067;DHT22;19428;49.024;8.366;2023-03-01T01:30:17;-0.40;99.30
33067;DHT22;19428;49.024;8.366;2023-03-01T01:32:43;-0.30;99.40
33067;DHT22;19428;49.024;8.366;2023-03-01T01:35:09;-0.30;99.30
33067;DHT22;19428;49.024;8.366;2023-03-01T01:37:34;-0.30;99.40
33067;DHT22;19428;49.024;8.366;2023-03-01T01:40:01;-0.20;99.10
33067;DHT22;19428;49.024;8.366;2023-03-01T01:42:30;-0.20;99.20
33067;DHT22;19428;49.024;8.366;2023-03-01T01:47:49;-0.20;99.10
33067;DHT22;19428;49.024;8.366;2023-03-01T01:50:17;-0.20;99.80
33067;DHT22;19428;49.024;8.366;2023-03-01T01:52:43;-0.20;99.40
33067;DHT22;19428;49.024;8.366;2023-03-01T01:55:18;-0.10;99.40
33067;DHT22;19428;49.024;8.366;2023-03-01T01:57:49;-0.10;99.30
33067;DHT22;19428;49.024;8.366;2023-03-01T02:00:20;-0.20;99.50
33067;DHT22;19428;49.024;8.366;2023-03-01T02:02:47;-0.20;99.70
33067;DHT22;19428;49.024;8.366;2023-03-01T02:08:02;-0.20;99.60
33067;DHT22;19428;49.024;8.366;2023-03-01T02:10:28;-0.20;99.40
33067;DHT22;19428;49.024;8.366;2023-03-01T02:12:55;-0.30;99.80
33067;DHT22;19428;49.024;8.366;2023-03-01T02:15:24;-0.20;99.80
33067;DHT22;19428;49.024;8.366;2023-03-01T02:17:52;-0.30;99.90
33067;DHT22;19428;49.024;8.366;2023-03-01T02:20:30;-0.30;99.90
33067;DHT22;19428;49.024;8.366;2023-03-01T02:22:57;-0.40;99.50
33067;DHT22;19428;49.024;8.366;2023-03-01T02:25:31;-0.60;99.90
33067;DHT22;19428;49.024;8.366;2023-03-01T02:30:42;-0.80;99.90
33067;DHT22;19428;49.024;8.366;2023-03-01T02:33:30;-1.00;99.90
33067;DHT22;19428;49.024;8.366;2023-03-01T02:36:08;-0.90;99.90
33067;DHT22;19428;49.024;8.366;2023-03-01T02:38:34;-0.70;99.90
33067;DHT22;19428;49.024;8.366;2023-03-01T02:41:02;-0.70;99.90
33067;DHT22;19428;49.024;8.366;2023-03-01T02:43:31;-0.60;99.90
33067;DHT22;19428;49.024;8.366;2023-03-01T02:49:31;-0.50;99.90
33067;DHT22;19428;49.024;8.366;2023-03-01T02:52:04;-0.50;99.90
33067;DHT22;19428;49.024;8.366;2023-03-01T02:54:48;-0.40;99.90
33067;DHT22;19428;49.024;8.366;2023-03-01T02:57:14;-0.40;99.90
33067;DHT22;19428;49.024;8.366;2023-03-01T02:59:41;-0.50;99.90
33067;DHT22;19428;49.024;8.366;2023-03-01T03:02:20;-0.50;99.90
33067;DHT22;19428;49.024;8.366;2023-03-01T03:04:47;-0.60;99.90
33067;DHT22;19428;49.024;8.366;2023-03-01T03:07:12;-0.60;99.90
33067;DHT22;19428;49.024;8.366;2023-03-01T03:09:39;-0.60;99.90
33067;DHT22;19428;49.024;8.366;2023-03-01T03:12:05;-0.60;99.90
33067;DHT22;19428;49.024;8.366;2023-03-01T03:14:30;-0.50;99.90
33067;DHT22;19428;49.024;8.366;2023-03-01T03:17:00;-0.50;99.90
33067;DHT22;19428;49.024;8.366;2023-03-01T03:19:25;-0.60;99.90
33067;DHT22;19428;49.024;8.366;2023-03-01T03:21:51;-0.60;99.90
33067;DHT22;19428;49.024;8.366;2023-03-01T03:24:17;-0.70;99.90
33067;DHT22;19428;49.024;8.366;2023-03-01T03:26:43;-0.70;99.90
33067;DHT22;19428;49.024;8.366;2023-03-01T03:29:09;-0.80;99.90
33067;DHT22;19428;49.024;8.366;2023-03-01T03:31:34;-0.80;99.90
33067;DHT22;19428;49.024;8.366;2023-03-01T03:34:00;-0.80;99.90
33067;DHT22;19428;49.024;8.366;2023-03-01T03:36:25;-1.00;99.90
33067;DHT22;19428;49.024;8.366;2023-03-01T03:38:51;-1.00;99.90
33067;DHT22;19428;49.024;8.366;2023-03-01T03:41:17;-1.00;99.90
33067;DHT22;19428;49.024;8.366;2023-03-01T03:43:43;-1.00;99.90
33067;DHT22;19428;49.024;8.366;2023-03-01T03:46:10;-1.10;99.90
33067;DHT22;19428;49.024;8.366;2023-03-01T03:48:40;-1.00;99.90
33067;DHT22;19428;49.024;8.366;2023-03-01T03:51:06;-0.90;99.90
33067;DHT22;19428;49.024;8.366;2023-03-01T03:53:33;-1.00;99.90
33067;DHT22;19428;49.024;8.366;2023-03-01T03:55:58;-0.90;99.90
33067;DHT22;19428;49.024;8.366;2023-03-01T03:58:25;-0.90;99.90
33067;DHT22;19428;49.024;8.366;2023-03-01T04:00:53;-1.00;99.90
33067;DHT22;19428;49.024;8.366;2023-03-01T04:03:21;-1.10;99.90
33067;DHT22;19428;49.024;8.366;2023-03-01T04:05:48;-1.00;99.90
33067;DHT22;19428;49.024;8.366;2023-03-01T04:08:16;-1.00;99.90
33067;DHT22;19428;49.024;8.366;2023-03-01T04:10:44;-1.20;99.90
33067;DHT22;19428;49.024;8.366;2023-03-01T04:13:12;-1.10;99.90
33067;DHT22;19428;49.024;8.366;2023-03-01T04:15:39;-1.00;99.90
33067;DHT22;19428;49.024;8.366;2023-03-01T04:18:05;-1.10;99.90
33067;DHT22;19428;49.024;8.366;2023-03-01T04:20:34;-1.10;99.90
33067;DHT22;19428;49.024;8.366;2023-03-01T04:23:05;-1.10;99.90
33067;DHT22;19428;49.024;8.366;2023-03-01T04:25:56;-1.20;99.90
33067;DHT22;19428;49.024;8.366;2023-03-01T04:28:25;-1.10;99.90
33067;DHT22;19428;49.024;8.366;2023-03-01T04:30:53;-1.10;99.90
33067;DHT22;19428;49.024;8.366;2023-03-01T04:33:19;-1.10;99.90
33067;DHT22;19428;49.024;8.366;2023-03-01T04:35:45;-1.10;99.90
33067;DHT22;19428;49.024;8.366;2023-03-01T04:38:11;-1.20;99.90
33067;DHT22;19428;49.024;8.366;2023-03-01T04:40:37;-1.10;99.90
33067;DHT22;19428;49.024;8.366;2023-03-01T04:43:03;-1.30;99.90
33067;DHT22;19428;49.024;8.366;2023-03-01T04:45:31;-1.40;99.90
33067;DHT22;19428;49.024;8.366;2023-03-01T04:47:57;-1.30;99.90
33067;DHT22;19428;49.024;8.366;2023-03-01T04:50:23;-1.50;99.90
33067;DHT22;19428;49.024;8.366;2023-03-01T04:52:51;-1.40;99.90
33067;DHT22;19428;49.024;8.366;2023-03-01T04:55:17;-1.30;99.90
33067;DHT22;19428;49.024;8.366;2023-03-01T04:57:42;-1.20;99.90
33067;DHT22;19428;49.024;8.366;2023-03-01T05:00:10;-1.30;99.90
33067;DHT22;19428;49.024;8.366;2023-03-01T05:02:56;-1.30;99.90
33067;DHT22;19428;49.024;8.366;2023-03-01T05:05:34;-1.30;99.90
33067;DHT22;19428;49.024;8.366;2023-03-01T05:08:04;-1.40;99.90
33067;DHT22;19428;49.024;8.366;2023-03-01T05:10:32;-1.30;99.90
33067;DHT22;19428;49.024;8.366;2023-03-01T05:12:58;-1.20;99.90
33067;DHT22;19428;49.024;8.366;2023-03-01T05:15:25;-1.50;99.90
33067;DHT22;19428;49.024;8.366;2023-03-01T05:17:53;-1.50;99.90
33067;DHT22;19428;49.024;8.366;2023-03-01T05:20:20;-1.40;99.90
33067;DHT22;19428;49.024;8.366;2023-03-01T05:22:49;-1.30;99.90
33067;DHT22;19428;49.024;8.366;2023-03-01T05:25:14;-1.40;99.90
33067;DHT22;19428;49.024;8.366;2023-03-01T05:27:40;-1.40;99.90
33067;DHT22;19428;49.024;8.366;2023-03-01T05:30:06;-1.40;99.90
33067;DHT22;19428;49.024;8.366;2023-03-01T05:32:40;-1.50;99.90
33067;DHT22;19428;49.024;8.366;2023-03-01T05:35:07;-1.50;99.90
33067;DHT22;19428;49.024;8.366;2023-03-01T05:37:32;-1.50;99.90
33067;DHT22;19428;49.024;8.366;2023-03-01T05:39:58;-1.30;99.90
33067;DHT22;19428;49.024;8.366;2023-03-01T05:42:23;-1.40;99.90
33067;DHT22;19428;49.024;8.366;2023-03-01T05:44:49;-1.30;99.90
33067;DHT22;19428;49.024;8.366;2023-03-01T05:47:14;-1.40;99.90
33067;DHT22;19428;49.024;8.366;2023-03-01T05:49:40;-1.50;99.90
33067;DHT22;19428;49.024;8.366;2023-03-01T05:52:05;-1.50;99.90
33067;DHT22;19428;49.024;8.366;2023-03-01T05:54:31;-1.50;99.90
33067;DHT22;19428;49.024;8.366;2023-03-01T05:56:57;-1.50;99.90
33067;DHT22;19428;49.024;8.366;2023-03-01T05:59:22;-1.50;99.90
33067;DHT22;19428;49.024;8.366;2023-03-01T06:01:48;-1.60;99.90
33067;DHT22;19428;49.024;8.366;2023-03-01T06:04:13;-1.70;99.90
33067;DHT22;19428;49.024;8.366;2023-03-01T06:06:39;-1.70;99.90
33067;DHT22;19428;49.024;8.366;2023-03-01T06:09:05;-1.60;99.90
33067;DHT22;19428;49.024;8.366;2023-03-01T06:11:34;-1.70;99.90
33067;DHT22;19428;49.024;8.366;2023-03-01T06:14:00;-1.70;99.90
33067;DHT22;19428;49.024;8.366;2023-03-01T06:16:27;-1.60;99.90
33067;DHT22;19428;49.024;8.366;2023-03-01T06:18:52;-1.70;99.90
33067;DHT22;19428;49.024;8.366;2023-03-01T06:21:18;-1.60;99.90
33067;DHT22;19428;49.024;8.366;2023-03-01T06:23:43;-1.60;99.90
33067;DHT22;19428;49.024;8.366;2023-03-01T06:26:09;-1.60;99.90
33067;DHT22;19428;49.024;8.366;2023-03-01T06:28:35;-1.60;99.90
33067;DHT22;19428;49.024;8.366;2023-03-01T06:31:01;-1.60;99.90
33067;DHT22;19428;49.024;8.366;2023-03-01T06:33:27;-1.60;99.90
33067;DHT22;19428;49.024;8.366;2023-03-01T06:35:56;-1.60;99.90
33067;DHT22;19428;49.024;8.366;2023-03-01T06:38:22;-1.60;99.90
33067;DHT22;19428;49.024;8.366;2023-03-01T06:40:55;-1.50;99.90
33067;DHT22;19428;49.024;8.366;2023-03-01T06:43:22;-1.50;99.90
33067;DHT22;19428;49.024;8.366;2023-03-01T06:45:48;-1.50;99.90
33067;DHT22;19428;49.024;8.366;2023-03-01T06:48:14;-1.40;99.90
33067;DHT22;19428;49.024;8.366;2023-03-01T06:50:40;-1.40;99.90
33067;DHT22;19428;49.024;8.366;2023-03-01T06:53:05;-1.40;99.90
33067;DHT22;19428;49.024;8.366;2023-03-01T06:55:31;-1.40;99.90
33067;DHT22;19428;49.024;8.366;2023-03-01T06:58:01;-1.40;99.90
33067;DHT22;19428;49.024;8.366;2023-03-01T07:00:27;-1.30;99.90
33067;DHT22;19428;49.024;8.366;2023-03-01T07:02:53;-1.20;99.90
33067;DHT22;19428;49.024;8.366;2023-03-01T07:05:19;-1.20;99.90
33067;DHT22;19428;49.024;8.366;2023-03-01T07:07:44;-1.00;99.90
33067;DHT22;19428;49.024;8.366;2023-03-01T07:10:10;-0.90;99.90
33067;DHT22;19428;49.024;8.366;2023-03-01T07:12:36;-0.80;99.90
33067;DHT22;19428;49.024;8.366;2023-03-01T07:15:03;-0.70;99.90
33067;DHT22;19428;49.024;8.366;2023-03-01T07:17:29;-0.60;99.90
33067;DHT22;19428;49.024;8.366;2023-03-01T07:19:54;-0.50;99.90
33067;DHT22;19428;49.024;8.366;2023-03-01T07:22:20;-0.50;99.90
33067;DHT22;19428;49.024;8.366;2023-03-01T07:24:45;-0.50;99.90
33067;DHT22;19428;49.024;8.366;2023-03-01T07:27:11;-0.50;99.90
33067;DHT22;19428;49.024;8.366;2023-03-01T07:29:37;-0.40;99.90
33067;DHT22;19428;49.024;8.366;2023-03-01T07:32:03;-0.30;99.90
33067;DHT22;19428;49.024;8.366;2023-03-01T07:34:29;-0.30;99.90
33067;DHT22;19428;49.024;8.366;2023-03-01T07:36:55;-0.30;99.90
33067;DHT22;19428;49.024;8.366;2023-03-01T07:39:21;-0.20;99.90
33067;DHT22;19428;49.024;8.366;2023-03-01T07:41:48;-0.20;99.90
33067;DHT22;19428;49.024;8.366;2023-03-01T07:44:14;-0.20;99.90
33067;DHT22;19428;49.024;8.366;2023-03-01T07:46:40;-0.10;99.90
33067;DHT22;19428;49.024;8.366;2023-03-01T07:49:06;-0.10;99.90
33067;DHT22;19428;49.024;8.366;2023-03-01T07:51:32;0.00;99.90
33067;DHT22;19428;49.024;8.366;2023-03-01T07:53:57;0.10;99.90
33067;DHT22;19428;49.024;8.366;2023-03-01T07:56:23;0.10;99.90
33067;DHT22;19428;49.024;8.366;2023-03-01T07:58:49;0.20;99.90
33067;DHT22;19428;49.024;8.366;2023-03-01T08:01:17;0.30;99.90
33067;DHT22;19428;49.024;8.366;2023-03-01T08:03:43;0.40;99.90
33067;DHT22;19428;49.024;8.366;2023-03-01T08:06:11;0.40;99.90
33067;DHT22;19428;49.024;8.366;2023-03-01T08:08:36;0.50;99.90
33067;DHT22;19428;49.024;8.366;2023-03-01T08:11:04;0.50;99.90
33067;DHT22;19428;49.024;8.366;2023-03-01T08:13:30;0.60;99.90
33067;DHT22;19428;49.024;8.366;2023-03-01T08:16:08;0.60;99.90
33067;DHT22;19428;49.024;8.366;2023-03-01T08:18:34;0.70;99.90
33067;DHT22;19428;49.024;8.366;2023-03-01T08:21:05;0.70;99.90
33067;DHT22;19428;49.024;8.366;2023-03-01T08:23:31;0.80;99.90
33067;DHT22;19428;49.024;8.366;2023-03-01T08:26:07;0.90;99.90
33067;DHT22;19428;49.024;8.366;2023-03-01T08:28:33;0.90;99.90
33067;DHT22;19428;49.024;8.366;2023-03-01T08:30:59;0.90;99.40
33067;DHT22;19428;49.024;8.366;2023-03-01T08:33:25;1.00;99.10
33067;DHT22;19428;49.024;8.366;2023-03-01T08:35:51;1.10;99.00
33067;DHT22;19428;49.024;8.366;2023-03-01T08:38:16;1.10;99.20
33067;DHT22;19428;49.024;8.366;2023-03-01T08:40:42;1.20;98.40
33067;DHT22;19428;49.024;8.366;2023-03-01T08:43:07;1.20;98.40
33067;DHT22;19428;49.024;8.366;2023-03-01T08:45:33;1.30;98.40
33067;DHT22;19428;49.024;8.366;2023-03-01T08:47:58;1.50;98.00
33067;DHT22;19428;49.024;8.366;2023-03-01T08:50:24;1.50;97.20
33067;DHT22;19428;49.024;8.366;2023-03-01T08:52:50;1.50;97.30
33067;DHT22;19428;49.024;8.366;2023-03-01T08:55:15;1.70;96.90
33067;DHT22;19428;49.024;8.366;2023-03-01T08:57:42;1.80;96.30
33067;DHT22;19428;49.024;8.366;2023-03-01T09:00:09;1.70;96.20
33067;DHT22;19428;49.024;8.366;2023-03-01T09:02:36;1.70;96.30
33067;DHT22;19428;49.024;8.366;2023-03-01T09:05:02;1.80;95.60
33067;DHT22;19428;49.024;8.366;2023-03-01T09:07:27;1.80;95.50
33067;DHT22;19428;49.024;8.366;2023-03-01T09:09:56;1.80;95.20
33067;DHT22;19428;49.024;8.366;2023-03-01T09:12:21;1.90;95.30
33067;DHT22;19428;49.024;8.366;2023-03-01T09:14:47;1.90;95.10
33067;DHT22;19428;49.024;8.366;2023-03-01T09:17:13;2.00;94.90
33067;DHT22;19428;49.024;8.366;2023-03-01T09:19:38;2.10;95.00
33067;DHT22;19428;49.024;8.366;2023-03-01T09:22:04;2.10;94.40
33067;DHT22;19428;49.024;8.366;2023-03-01T09:24:30;2.30;94.70
33067;DHT22;19428;49.024;8.366;2023-03-01T09:26:56;2.40;93.80
33067;DHT22;19428;49.024;8.366;2023-03-01T09:29:22;2.30;93.70
33067;DHT22;19428;49.024;8.366;2023-03-01T09:31:48;2.30;93.60
33067;DHT22;19428;49.024;8.366;2023-03-01T09:34:14;2.30;93.60
33067;DHT22;19428;49.024;8.366;2023-03-01T09:36:41;2.40;93.20
33067;DHT22;19428;49.024;8.366;2023-03-01T09:39:07;2.60;93.20
33067;DHT22;19428;49.024;8.366;2023-03-01T09:46:54;2.60;92.30
33067;DHT22;19428;49.024;8.366;2023-03-01T09:49:31;2.80;92.10
33067;DHT22;19428;49.024;8.366;2023-03-01T09:52:01;2.80;92.00
33067;DHT22;19428;49.024;8.366;2023-03-01T09:54:29;2.80;91.60
33067;DHT22;19428;49.024;8.366;2023-03-01T09:57:17;3.00;91.70
33067;DHT22;19428;49.024;8.366;2023-03-01T09:59:51;3.00;91.30
33067;DHT22;19428;49.024;8.366;2023-03-01T10:02:41;3.00;91.20
33067;DHT22;19428;49.024;8.366;2023-03-01T10:05:35;3.20;90.80
33067;DHT22;19428;49.024;8.366;2023-03-01T10:10:37;3.40;90.20
33067;DHT22;19428;49.024;8.366;2023-03-01T10:15:41;3.20;89.20
33067;DHT22;19428;49.024;8.366;2023-03-01T10:18:28;3.40;90.30
33067;DHT22;19428;49.024;8.366;2023-03-01T10:21:00;3.50;90.00
33067;DHT22;19428;49.024;8.366;2023-03-01T10:23:30;3.70;88.40
33067;DHT22;19428;49.024;8.366;2023-03-01T10:31:43;3.80;86.20
33067;DHT22;19428;49.024;8.366;2023-03-01T10:34:13;3.80;87.30
33067;DHT22;19428;49.024;8.366;2023-03-01T10:36:40;4.10;85.30
33067;DHT22;19428;49.024;8.366;2023-03-01T10:39:13;3.90;84.50
33067;DHT22;19428;49.024;8.366;2023-03-01T10:42:00;4.30;86.40
33067;DHT22;19428;49.024;8.366;2023-03-01T10:44:42;4.30;84.70
33067;DHT22;19428;49.024;8.366;2023-03-01T10:49:57;4.20;83.10
33067;DHT22;19428;49.024;8.366;2023-03-01T10:52:36;4.40;83.10
33067;DHT22;19428;49.024;8.366;2023-03-01T10:55:24;4.50;81.70
33067;DHT22;19428;49.024;8.366;2023-03-01T10:57:49;4.60;81.90
33067;DHT22;19428;49.024;8.366;2023-03-01T11:00:20;4.60;80.70
33067;DHT22;19428;49.024;8.366;2023-03-01T11:03:09;4.60;79.60
33067;DHT22;19428;49.024;8.366;2023-03-01T11:05:35;4.70;80.00
33067;DHT22;19428;49.024;8.366;2023-03-01T11:08:02;4.60;79.30
33067;DHT22;19428;49.024;8.366;2023-03-01T11:10:31;4.60;79.30
33067;DHT22;19428;49.024;8.366;2023-03-01T11:13:08;4.60;78.30
33067;DHT22;19428;49.024;8.366;2023-03-01T11:15:34;4.80;78.90
33067;DHT22;19428;49.024;8.366;2023-03-01T11:18:00;4.90;77.70
33067;DHT22;19428;49.024;8.366;2023-03-01T11:20:33;5.30;77.30
33067;DHT22;19428;49.024;8.366;2023-03-01T11:23:04;5.20;76.10
33067;DHT22;19428;49.024;8.366;2023-03-01T11:25:39;5.10;76.00
33067;DHT22;19428;49.024;8.366;2023-03-01T11:28:06;5.10;75.10
33067;DHT22;19428;49.024;8.366;2023-03-01T11:30:41;5.40;75.40
33067;DHT22;19428;49.024;8.366;2023-03-01T11:38:26;5.70;72.00
33067;DHT22;19428;49.024;8.366;2023-03-01T11:41:25;5.60;72.00
33067;DHT22;19428;49.024;8.366;2023-03-01T11:43:56;5.60;71.40
33067;DHT22;19428;49.024;8.366;2023-03-01T11:49:36;6.00;71.40
33067;DHT22;19428;49.024;8.366;2023-03-01T12:08:48;6.10;65.60
33067;DHT22;19428;49.024;8.366;2023-03-01T12:17:02;6.00;65.50
33067;DHT22;19428;49.024;8.366;2023-03-01T12:19:42;6.00;66.30
33067;DHT22;19428;49.024;8.366;2023-03-01T12:22:23;6.20;67.30
33067;DHT22;19428;49.024;8.366;2023-03-01T12:25:31;6.40;66.50
33067;DHT22;19428;49.024;8.366;2023-03-01T12:28:02;6.40;65.90
33067;DHT22;19428;49.024;8.366;2023-03-01T12:33:54;6.20;64.70
33067;DHT22;19428;49.024;8.366;2023-03-01T12:37:11;6.30;66.50
33067;DHT22;19428;49.024;8.366;2023-03-01T12:48:08;6.60;61.80
33067;DHT22;19428;49.024;8.366;2023-03-01T12:50:42;6.80;61.50
33067;DHT22;19428;49.024;8.366;2023-03-01T12:53:28;6.80;59.70
33067;DHT22;19428;49.024;8.366;2023-03-01T12:55:59;7.20;59.00
33067;DHT22;19428;49.024;8.366;2023-03-01T12:58:36;6.90;59.20
33067;DHT22;19428;49.024;8.366;2023-03-01T13:07:48;7.30;58.00
33067;DHT22;19428;49.024;8.366;2023-03-01T13:17:54;7.60;56.10
33067;DHT22;19428;49.024;8.366;2023-03-01T13:20:23;7.50;55.10
33067;DHT22;19428;49.024;8.366;2023-03-01T13:26:04;7.70;55.50
33067;DHT22;19428;49.024;8.366;2023-03-01T13:28:53;7.40;56.40
33067;DHT22;19428;49.024;8.366;2023-03-01T13:39:00;7.50;53.60
33067;DHT22;19428;49.024;8.366;2023-03-01T13:44:30;7.90;54.00
33067;DHT22;19428;49.024;8.366;2023-03-01T13:47:17;7.90;53.80
33067;DHT22;19428;49.024;8.366;2023-03-01T13:50:03;7.70;53.00
33067;DHT22;19428;49.024;8.366;2023-03-01T13:52:56;8.00;53.30
33067;DHT22;19428;49.024;8.366;2023-03-01T13:55:37;8.00;53.40
33067;DHT22;19428;49.024;8.366;2023-03-01T13:58:51;7.90;53.50
33067;DHT22;19428;49.024;8.366;2023-03-01T14:01:27;7.60;53.30
33067;DHT22;19428;49.024;8.366;2023-03-01T14:03:53;7.70;53.00
33067;DHT22;19428;49.024;8.366;2023-03-01T14:06:30;8.10;52.30
33067;DHT22;19428;49.024;8.366;2023-03-01T14:19:59;7.90;51.70
33067;DHT22;19428;49.024;8.366;2023-03-01T14:23:14;7.90;51.00
33067;DHT22;19428;49.024;8.366;2023-03-01T14:25:52;8.00;51.90
33067;DHT22;19428;49.024;8.366;2023-03-01T14:28:23;8.30;50.20
33067;DHT22;19428;49.024;8.366;2023-03-01T14:30:52;8.20;51.00
33067;DHT22;19428;49.024;8.366;2023-03-01T14:33:35;8.20;50.20
33067;DHT22;19428;49.024;8.366;2023-03-01T14:36:09;8.10;50.20
33067;DHT22;19428;49.024;8.366;2023-03-01T14:38:40;8.10;49.40
33067;DHT22;19428;49.024;8.366;2023-03-01T14:41:20;8.20;50.30
33067;DHT22;19428;49.024;8.366;2023-03-01T14:43:52;8.40;50.40
33067;DHT22;19428;49.024;8.366;2023-03-01T14:46:37;8.50;49.40
33067;DHT22;19428;49.024;8.366;2023-03-01T14:49:15;8.10;49.90
33067;DHT22;19428;49.024;8.366;2023-03-01T14:51:50;8.30;50.00
33067;DHT22;19428;49.024;8.366;2023-03-01T14:54:24;8.40;50.10
33067;DHT22;19428;49.024;8.366;2023-03-01T14:56:52;8.30;50.40
33067;DHT22;19428;49.024;8.366;2023-03-01T14:59:22;8.20;50.00
33067;DHT22;19428;49.024;8.366;2023-03-01T15:01:49;8.40;49.50
33067;DHT22;19428;49.024;8.366;2023-03-01T15:04:16;8.30;49.90
33067;DHT22;19428;49.024;8.366;2023-03-01T15:06:42;8.20;50.10
33067;DHT22;19428;49.024;8.366;2023-03-01T15:09:14;8.40;49.80
33067;DHT22;19428;49.024;8.366;2023-03-01T15:11:41;8.30;49.80
33067;DHT22;19428;49.024;8.366;2023-03-01T15:14:48;8.20;50.20
33067;DHT22;19428;49.024;8.366;2023-03-01T15:19:54;8.30;48.80
33067;DHT22;19428;49.024;8.366;2023-03-01T15:22:20;8.20;49.90
33067;DHT22;19428;49.024;8.366;2023-03-01T15:24:50;8.20;49.10
33067;DHT22;19428;49.024;8.366;2023-03-01T15:27:20;8.00;49.60
33067;DHT22;19428;49.024;8.366;2023-03-01T15:29:59;8.10;50.30
33067;DHT22;19428;49.024;8.366;2023-03-01T15:32:34;8.00;49.50
33067;DHT22;19428;49.024;8.366;2023-03-01T15:35:22;8.00;49.70
33067;DHT22;19428;49.024;8.366;2023-03-01T15:37:47;8.00;49.70
33067;DHT22;19428;49.024;8.366;2023-03-01T15:40:29;8.00;49.50
33067;DHT22;19428;49.024;8.366;2023-03-01T15:43:04;8.00;49.40
33067;DHT22;19428;49.024;8.366;2023-03-01T15:45:31;8.00;49.20
33067;DHT22;19428;49.024;8.366;2023-03-01T15:48:02;8.00;49.70
33067;DHT22;19428;49.024;8.366;2023-03-01T15:50:31;8.00;48.90
33067;DHT22;19428;49.024;8.366;2023-03-01T15:53:04;8.00;49.60
33067;DHT22;19428;49.024;8.366;2023-03-01T15:55:32;7.90;50.20
33067;DHT22;19428;49.024;8.366;2023-03-01T15:58:17;7.90;49.70
33067;DHT22;19428;49.024;8.366;2023-03-01T16:00:44;7.80;49.70
33067;DHT22;19428;49.024;8.366;2023-03-01T16:03:11;7.70;49.60
33067;DHT22;19428;49.024;8.366;2023-03-01T16:05:37;7.80;49.50
33067;DHT22;19428;49.024;8.366;2023-03-01T16:08:05;7.80;50.20
33067;DHT22;19428;49.024;8.366;2023-03-01T16:10:32;7.80;49.50
33067;DHT22;19428;49.024;8.366;2023-03-01T16:12:59;7.70;49.70
33067;DHT22;19428;49.024;8.366;2023-03-01T16:15:30;7.70;50.00
33067;DHT22;19428;49.024;8.366;2023-03-01T16:17:56;7.70;49.60
33067;DHT22;19428;49.024;8.366;2023-03-01T16:20:24;7.70;50.20
33067;DHT22;19428;49.024;8.366;2023-03-01T16:22:50;7.60;50.30
33067;DHT22;19428;49.024;8.366;2023-03-01T16:25:17;7.60;49.80
33067;DHT22;19428;49.024;8.366;2023-03-01T16:27:44;7.60;50.60
33067;DHT22;19428;49.024;8.366;2023-03-01T16:30:11;7.50;51.30
33067;DHT22;19428;49.024;8.366;2023-03-01T16:32:38;7.50;51.10
33067;DHT22;19428;49.024;8.366;2023-03-01T16:35:05;7.50;50.20
33067;DHT22;19428;49.024;8.366;2023-03-01T16:37:32;7.40;50.20
33067;DHT22;19428;49.024;8.366;2023-03-01T16:39:58;7.40;50.90
33067;DHT22;19428;49.024;8.366;2023-03-01T16:42:23;7.40;50.50
33067;DHT22;19428;49.024;8.366;2023-03-01T16:44:54;7.30;51.00
33067;DHT22;19428;49.024;8.366;2023-03-01T16:47:20;7.30;51.30
33067;DHT22;19428;49.024;8.366;2023-03-01T16:49:46;7.30;51.10
33067;DHT22;19428;49.024;8.366;2023-03-01T16:52:11;7.20;51.30
33067;DHT22;19428;49.024;8.366;2023-03-01T16:54:37;7.20;51.40
33067;DHT22;19428;49.024;8.366;2023-03-01T16:57:02;7.10;51.30
33067;DHT22;19428;49.024;8.366;2023-03-01T16:59:28;7.10;51.50
33067;DHT22;19428;49.024;8.366;2023-03-01T17:01:54;7.10;51.60
33067;DHT22;19428;49.024;8.366;2023-03-01T17:04:20;6.90;52.10
33067;DHT22;19428;49.024;8.366;2023-03-01T17:06:46;6.90;52.00
33067;DHT22;19428;49.024;8.366;2023-03-01T17:09:13;6.90;52.00
33067;DHT22;19428;49.024;8.366;2023-03-01T17:11:39;6.80;52.40
33067;DHT22;19428;49.024;8.366;2023-03-01T17:14:06;6.80;52.50
33067;DHT22;19428;49.024;8.366;2023-03-01T17:16:32;6.70;52.70
33067;DHT22;19428;49.024;8.366;2023-03-01T17:18:57;6.60;53.20
33067;DHT22;19428;49.024;8.366;2023-03-01T17:21:23;6.70;53.20
33067;DHT22;19428;49.024;8.366;2023-03-01T17:23:49;6.70;53.00
33067;DHT22;19428;49.024;8.366;2023-03-01T17:26:16;6.60;53.20
33067;DHT22;19428;49.024;8.366;2023-03-01T17:28:42;6.70;53.00
33067;DHT22;19428;49.024;8.366;2023-03-01T17:31:08;6.60;53.00
33067;DHT22;19428;49.024;8.366;2023-03-01T17:33:34;6.60;53.20
33067;DHT22;19428;49.024;8.366;2023-03-01T17:36:00;6.50;53.60
33067;DHT22;19428;49.024;8.366;2023-03-01T17:38:26;6.50;53.70
33067;DHT22;19428;49.024;8.366;2023-03-01T17:40:53;6.40;53.90
33067;DHT22;19428;49.024;8.366;2023-03-01T17:43:20;6.40;54.10
33067;DHT22;19428;49.024;8.366;2023-03-01T17:45:47;6.40;54.10
33067;DHT22;19428;49.024;8.366;2023-03-01T17:48:15;6.20;54.80